createdAt,value
2022-11-26T00:01:43.922Z,3.20
2022-11-26T00:03:53.397Z,3.50
2022-11-26T00:06:01.647Z,2.93
2022-11-26T00:08:18.092Z,3.13
2022-11-26T00:10:28.381Z,3.30
2022-11-26T00:12:36.947Z,3.20
2022-11-26T00:14:47.326Z,2.77
2022-11-26T00:16:55.579Z,3.00
2022-11-26T00:19:03.794Z,3.50
2022-11-26T00:21:19.436Z,3.10
2022-11-26T00:23:29.457Z,3.50
2022-11-26T00:25:42.445Z,3.47
2022-11-26T00:27:51.621Z,3.27
2022-11-26T00:30:01.251Z,3.37
2022-11-26T00:32:17.089Z,3.30
2022-11-26T00:34:25.273Z,3.17
2022-11-26T00:36:34.721Z,3.13
2022-11-26T00:38:43.044Z,3.50
2022-11-26T00:40:51.386Z,3.13
2022-11-26T00:43:01.950Z,3.20
2022-11-26T00:45:21.138Z,3.40
2022-11-26T00:47:29.836Z,3.23
2022-11-26T00:49:38.325Z,3.20
2022-11-26T00:51:47.419Z,3.37
2022-11-26T00:53:56.845Z,3.27
2022-11-26T00:56:05.298Z,3.83
2022-11-26T00:58:21.508Z,3.50
2022-11-26T01:00:33.011Z,3.47
2022-11-26T01:02:41.716Z,3.37
2022-11-26T01:04:50.214Z,3.40
2022-11-26T01:06:58.696Z,3.57
2022-11-26T01:09:07.976Z,2.97
2022-11-26T01:11:18.102Z,3.13
2022-11-26T01:13:26.518Z,3.40
2022-11-26T01:15:36.546Z,3.80
2022-11-26T01:17:45.041Z,3.40
2022-11-26T01:19:53.456Z,3.20
2022-11-26T01:22:02.032Z,3.60
2022-11-26T01:24:10.469Z,3.50
2022-11-26T01:26:20.403Z,3.40
2022-11-26T01:28:28.947Z,3.63
2022-11-26T01:30:38.727Z,3.40
2022-11-26T01:32:47.313Z,3.30
2022-11-26T01:34:55.756Z,3.90
2022-11-26T01:37:04.189Z,3.37
2022-11-26T01:39:15.854Z,3.07
2022-11-26T01:41:33.142Z,3.50
2022-11-26T01:43:43.097Z,3.37
2022-11-26T01:45:53.041Z,3.30
2022-11-26T01:48:01.541Z,4.20
2022-11-26T01:50:28.776Z,4.30
2022-11-26T01:52:37.512Z,4.00
2022-11-26T01:54:46.764Z,4.00
2022-11-26T01:56:57.656Z,3.37
2022-11-26T01:59:09.359Z,4.13
2022-11-26T02:01:19.684Z,3.87
2022-11-26T02:03:29.748Z,3.43
2022-11-26T02:05:41.903Z,3.77
2022-11-26T02:07:50.412Z,3.33
2022-11-26T02:09:58.883Z,4.00
2022-11-26T02:12:07.376Z,3.93
2022-11-26T02:14:17.292Z,3.33
2022-11-26T02:16:33.855Z,4.50
2022-11-26T02:18:46.192Z,3.87
2022-11-26T02:20:58.836Z,3.73
2022-11-26T02:23:25.943Z,3.77
2022-11-26T02:25:41.452Z,3.50
2022-11-26T02:27:59.283Z,3.43
2022-11-26T02:30:10.766Z,3.43
2022-11-26T02:32:21.586Z,3.53
2022-11-26T02:34:37.753Z,3.77
2022-11-26T02:36:48.782Z,3.37
2022-11-26T02:38:57.275Z,3.60
2022-11-26T02:41:05.771Z,3.47
2022-11-26T02:43:15.260Z,3.30
2022-11-26T02:45:26.211Z,3.67
2022-11-26T02:47:35.225Z,3.17
2022-11-26T02:49:45.197Z,3.57
2022-11-26T02:51:55.547Z,2.97
2022-11-26T02:54:04.676Z,3.33
2022-11-26T02:56:15.780Z,3.53
2022-11-26T02:58:24.215Z,3.97
2022-11-26T03:00:35.028Z,3.40
2022-11-26T03:02:45.657Z,3.57
2022-11-26T03:04:56.379Z,3.33
2022-11-26T03:07:06.216Z,3.50
2022-11-26T03:09:14.644Z,3.30
2022-11-26T03:11:23.235Z,3.50
2022-11-26T03:13:31.685Z,3.83
2022-11-26T03:15:41.592Z,3.67
2022-11-26T03:17:50.063Z,3.63
2022-11-26T03:19:58.464Z,3.53
2022-11-26T03:22:09.151Z,3.60
2022-11-26T03:24:17.532Z,3.93
2022-11-26T03:26:25.968Z,3.60
2022-11-26T03:28:35.109Z,3.90
2022-11-26T03:30:44.913Z,4.33
2022-11-26T03:32:53.349Z,3.83
2022-11-26T03:35:01.773Z,4.23
2022-11-26T03:37:10.210Z,4.07
2022-11-26T03:39:18.811Z,3.83
2022-11-26T03:41:27.381Z,4.30
2022-11-26T03:43:35.955Z,3.50
2022-11-26T03:45:45.842Z,3.93
2022-11-26T03:47:54.281Z,4.03
2022-11-26T03:50:02.672Z,4.20
2022-11-26T03:52:11.104Z,3.93
2022-11-26T03:54:19.548Z,4.07
2022-11-26T03:56:27.943Z,4.27
2022-11-26T03:58:36.392Z,3.97
2022-11-26T04:00:46.176Z,3.83
2022-11-26T04:02:54.617Z,3.90
2022-11-26T04:05:03.194Z,4.20
2022-11-26T04:07:12.142Z,4.23
2022-11-26T04:09:20.827Z,3.77
2022-11-26T04:11:29.245Z,4.37
2022-11-26T04:13:37.673Z,4.13
2022-11-26T04:15:47.555Z,4.40
2022-11-26T04:17:55.955Z,4.23
2022-11-26T04:20:04.402Z,4.70
2022-11-26T04:22:12.909Z,4.10
2022-11-26T04:24:21.568Z,4.53
2022-11-26T04:26:30.206Z,4.67
2022-11-26T04:28:38.783Z,4.47
2022-11-26T04:30:48.585Z,4.53
2022-11-26T04:32:57.080Z,4.70
2022-11-26T04:35:05.861Z,4.90
2022-11-26T04:37:14.261Z,4.87
2022-11-26T04:39:22.677Z,4.57
2022-11-26T04:41:31.045Z,5.00
2022-11-26T04:43:39.503Z,4.53
2022-11-26T04:45:49.530Z,5.03
2022-11-26T04:47:58.015Z,4.70
2022-11-26T04:50:06.888Z,5.00
2022-11-26T04:52:15.337Z,4.57
2022-11-26T04:54:24.229Z,4.43
2022-11-26T04:56:32.649Z,4.77
2022-11-26T04:58:41.346Z,4.33
2022-11-26T05:00:51.579Z,4.43
2022-11-26T05:03:00.168Z,5.27
2022-11-26T05:05:08.984Z,4.40
2022-11-26T05:07:17.428Z,4.40
2022-11-26T05:09:25.883Z,4.27
2022-11-26T05:11:34.273Z,4.73
2022-11-26T05:13:42.895Z,4.93
2022-11-26T05:15:52.875Z,5.63
2022-11-26T05:18:01.346Z,5.33
2022-11-26T05:20:10.425Z,5.50
2022-11-26T05:22:18.852Z,5.83
2022-11-26T05:24:27.885Z,5.80
2022-11-26T05:26:36.323Z,5.77
2022-11-26T05:28:44.729Z,5.80
2022-11-26T05:31:00.953Z,4.73
2022-11-26T05:33:09.402Z,4.47
2022-11-26T05:35:17.873Z,4.80
2022-11-26T05:37:26.481Z,4.63
2022-11-26T05:39:34.901Z,4.53
2022-11-26T05:41:43.632Z,4.37
2022-11-26T05:43:52.265Z,4.10
2022-11-26T05:46:06.890Z,4.00
2022-11-26T05:48:15.444Z,4.13
2022-11-26T05:50:23.852Z,4.00
2022-11-26T05:52:32.404Z,4.30
2022-11-26T05:54:41.185Z,3.93
2022-11-26T05:56:49.860Z,3.40
2022-11-26T05:58:59.936Z,3.77
2022-11-26T06:01:10.525Z,3.50
2022-11-26T06:03:20.450Z,3.53
2022-11-26T06:05:29.288Z,3.77
2022-11-26T06:07:43.304Z,4.20
2022-11-26T06:09:53.208Z,3.93
2022-11-26T06:12:01.740Z,3.93
2022-11-26T06:14:10.530Z,3.93
2022-11-26T06:16:20.757Z,4.40
2022-11-26T06:18:29.401Z,3.83
2022-11-26T06:20:38.227Z,4.33
2022-11-26T06:22:46.628Z,4.10
2022-11-26T06:24:54.995Z,4.03
2022-11-26T06:27:03.379Z,4.00
2022-11-26T06:29:11.809Z,4.50
2022-11-26T06:31:22.483Z,4.20
2022-11-26T06:33:30.932Z,4.10
2022-11-26T06:35:39.347Z,4.00
2022-11-26T06:37:47.857Z,4.17
2022-11-26T06:39:56.365Z,4.07
2022-11-26T06:42:04.785Z,3.90
2022-11-26T06:44:13.220Z,4.63
2022-11-26T06:46:23.297Z,4.10
2022-11-26T06:48:32.354Z,4.40
2022-11-26T06:50:40.972Z,3.60
2022-11-26T06:52:52.775Z,3.97
2022-11-26T06:55:01.164Z,3.80
2022-11-26T06:57:09.755Z,3.60
2022-11-26T06:59:18.139Z,4.23
2022-11-26T07:01:28.231Z,3.87
2022-11-26T07:03:36.802Z,4.20
2022-11-26T07:05:45.237Z,4.63
2022-11-26T07:07:53.737Z,4.10
2022-11-26T07:10:02.171Z,3.87
2022-11-26T07:12:10.592Z,4.30
2022-11-26T07:14:19.061Z,4.00
2022-11-26T07:16:29.081Z,3.93
2022-11-26T07:18:37.579Z,4.63
2022-11-26T07:20:46.214Z,4.13
2022-11-26T07:22:54.986Z,4.10
2022-11-26T07:25:04.498Z,3.63
2022-11-26T07:27:14.544Z,3.93
2022-11-26T07:29:23.116Z,4.37
2022-11-26T07:31:33.000Z,4.50
2022-11-26T07:33:41.520Z,4.03
2022-11-26T07:35:50.020Z,3.83
2022-11-26T07:37:58.687Z,4.20
2022-11-26T07:40:08.316Z,3.80
2022-11-26T07:42:16.970Z,4.37
2022-11-26T07:44:25.411Z,4.40
2022-11-26T07:46:35.266Z,4.50
2022-11-26T07:48:43.935Z,4.30
2022-11-26T07:50:52.445Z,4.00
2022-11-26T07:53:00.796Z,3.90
2022-11-26T07:55:12.427Z,4.40
2022-11-26T07:57:22.646Z,4.17
2022-11-26T07:59:31.097Z,4.10
2022-11-26T08:01:40.995Z,4.30
2022-11-26T08:03:50.474Z,4.20
2022-11-26T08:05:58.840Z,4.87
2022-11-26T08:08:07.556Z,5.07
2022-11-26T08:10:16.069Z,4.53
2022-11-26T08:12:24.761Z,4.83
2022-11-26T08:14:33.175Z,4.87
2022-11-26T08:16:43.017Z,5.27
2022-11-26T08:18:55.628Z,4.50
2022-11-26T08:21:04.124Z,4.40
2022-11-26T08:23:12.716Z,4.77
2022-11-26T08:25:21.101Z,4.70
2022-11-26T08:27:29.671Z,5.03
2022-11-26T08:29:38.193Z,4.80
2022-11-26T08:31:48.236Z,4.63
2022-11-26T08:33:57.996Z,4.50
2022-11-26T08:36:08.443Z,5.00
2022-11-26T08:38:17.130Z,5.20
2022-11-26T08:40:25.673Z,5.00
2022-11-26T08:42:35.234Z,4.90
2022-11-26T08:44:43.871Z,4.90
2022-11-26T08:46:53.920Z,5.13
2022-11-26T08:49:02.342Z,4.43
2022-11-26T08:51:12.434Z,5.40
2022-11-26T08:53:21.192Z,4.77
2022-11-26T08:55:53.410Z,4.80
2022-11-26T08:57:58.503Z,4.70
2022-11-26T09:00:07.527Z,4.93
2022-11-26T09:02:18.976Z,4.90
2022-11-26T09:04:27.924Z,4.43
2022-11-26T09:06:37.850Z,4.77
2022-11-26T09:09:06.682Z,4.77
2022-11-26T09:11:15.522Z,4.30
2022-11-26T09:13:24.033Z,4.93
2022-11-26T09:15:32.448Z,5.17
2022-11-26T09:17:42.497Z,4.70
2022-11-26T09:19:50.908Z,4.43
2022-11-26T09:21:59.979Z,5.20
2022-11-26T09:24:08.727Z,5.07
2022-11-26T09:26:18.369Z,4.83
2022-11-26T09:28:26.878Z,5.67
2022-11-26T09:30:35.437Z,5.27
2022-11-26T09:32:45.504Z,4.97
2022-11-26T09:34:55.000Z,5.13
2022-11-26T09:37:03.447Z,5.30
2022-11-26T09:39:14.244Z,5.07
2022-11-26T09:41:32.175Z,4.57
2022-11-26T09:43:47.213Z,4.53
2022-11-26T09:45:59.307Z,4.80
2022-11-26T09:48:13.592Z,5.60
2022-11-26T09:50:25.855Z,5.10
2022-11-26T09:52:36.773Z,4.83
2022-11-26T09:54:46.072Z,4.77
2022-11-26T09:56:56.360Z,5.57
2022-11-26T09:59:06.711Z,5.47
2022-11-26T10:01:18.480Z,5.00
2022-11-26T10:03:32.725Z,4.47
2022-11-26T10:05:50.536Z,5.03
2022-11-26T10:08:04.571Z,4.83
2022-11-26T10:10:19.680Z,4.70
2022-11-26T10:12:45.986Z,4.77
2022-11-26T10:15:06.769Z,5.03
2022-11-26T10:17:25.002Z,5.63
2022-11-26T10:19:41.103Z,5.30
2022-11-26T10:21:59.954Z,5.77
2022-11-26T10:24:12.312Z,5.33
2022-11-26T10:26:23.411Z,5.00
2022-11-26T10:28:33.724Z,5.57
2022-11-26T10:30:42.454Z,5.07
2022-11-26T10:32:51.936Z,5.03
2022-11-26T10:35:02.220Z,4.90
2022-11-26T10:37:13.246Z,4.93
2022-11-26T10:39:22.227Z,5.40
2022-11-26T10:41:32.033Z,5.00
2022-11-26T10:43:40.470Z,5.37
2022-11-26T10:45:49.875Z,5.43
2022-11-26T10:48:16.036Z,4.63
2022-11-26T10:52:55.141Z,4.73
2022-11-26T10:55:27.645Z,5.93
2022-11-26T10:57:38.638Z,5.23
2022-11-26T10:59:49.053Z,5.70
2022-11-26T11:02:02.923Z,4.43
2022-11-26T11:04:23.601Z,4.17
2022-11-26T11:06:40.081Z,4.80
2022-11-26T11:08:49.442Z,4.70
2022-11-26T11:10:58.923Z,4.43
2022-11-26T11:13:13.199Z,4.83
2022-11-26T11:15:23.883Z,5.33
2022-11-26T11:17:33.939Z,5.30
2022-11-26T11:19:42.361Z,5.30
2022-11-26T11:21:52.798Z,4.67
2022-11-26T11:24:11.616Z,4.70
2022-11-26T11:26:22.267Z,4.50
2022-11-26T11:28:31.939Z,5.83
2022-11-26T11:30:41.210Z,5.33
2022-11-26T11:32:51.043Z,5.33
2022-11-26T11:35:13.254Z,5.37
2022-11-26T11:37:23.169Z,5.17
2022-11-26T11:39:32.184Z,4.87
2022-11-26T11:41:43.301Z,5.60
2022-11-26T11:43:51.854Z,5.07
2022-11-26T11:46:18.205Z,4.93
2022-11-26T11:48:31.796Z,5.47
2022-11-26T11:50:43.895Z,5.43
2022-11-26T11:53:01.373Z,5.20
2022-11-26T11:55:16.816Z,4.70
2022-11-26T11:57:32.144Z,5.07
2022-11-26T12:00:10.803Z,5.10
2022-11-26T12:02:32.277Z,5.00
2022-11-26T12:04:48.996Z,6.00
2022-11-26T12:07:08.708Z,5.23
2022-11-26T12:09:24.732Z,5.17
2022-11-26T12:11:38.507Z,5.23
2022-11-26T12:13:50.208Z,4.67
2022-11-26T12:16:01.784Z,4.50
2022-11-26T12:18:22.596Z,5.43
2022-11-26T12:20:33.466Z,5.23
2022-11-26T12:22:44.612Z,4.77
2022-11-26T12:24:56.976Z,5.10
2022-11-26T12:27:06.499Z,5.43
2022-11-26T12:29:20.046Z,5.50
2022-11-26T12:31:30.878Z,5.80
2022-11-26T12:33:44.297Z,5.57
2022-11-26T12:35:54.532Z,5.07
2022-11-26T12:38:05.200Z,6.50
2022-11-26T12:40:23.813Z,7.83
2022-11-26T12:42:35.688Z,8.03
2022-11-26T12:44:46.154Z,6.27
2022-11-26T12:46:56.227Z,5.37
2022-11-26T12:49:08.726Z,5.47
2022-11-26T12:51:26.334Z,4.63
2022-11-26T12:53:41.304Z,5.20
2022-11-26T12:55:55.804Z,5.80
2022-11-26T12:58:06.613Z,6.00
2022-11-26T13:00:35.488Z,5.20
2022-11-26T13:02:45.570Z,5.57
2022-11-26T13:04:54.919Z,6.57
2022-11-26T13:07:11.615Z,6.33
2022-11-26T13:09:28.555Z,6.63
2022-11-26T13:11:43.216Z,5.77
2022-11-26T13:13:53.770Z,6.33
2022-11-26T13:16:07.056Z,5.70
2022-11-26T13:18:17.950Z,5.83
2022-11-26T13:20:44.061Z,4.70
2022-11-26T13:23:07.691Z,4.33
2022-11-26T13:25:37.338Z,5.57
2022-11-26T13:27:53.845Z,5.47
2022-11-26T13:30:09.789Z,4.60
2022-11-26T13:32:34.729Z,4.87
2022-11-26T13:34:53.379Z,4.83
2022-11-26T13:37:13.831Z,5.67
2022-11-26T13:39:35.729Z,5.17
2022-11-26T13:41:53.170Z,5.28
2022-11-26T13:44:22.465Z,7.70
2022-11-26T13:46:33.238Z,7.57
2022-11-26T13:48:46.657Z,4.93
2022-11-26T13:50:59.642Z,4.70
2022-11-26T13:53:11.638Z,4.50
2022-11-26T13:55:22.950Z,4.30
2022-11-26T13:57:37.407Z,4.60
2022-11-26T13:59:49.952Z,4.73
2022-11-26T14:01:59.866Z,4.70
2022-11-26T14:04:09.800Z,5.23
2022-11-26T14:06:18.373Z,6.07
2022-11-26T14:08:36.730Z,5.57
2022-11-26T14:10:47.684Z,6.57
2022-11-26T14:13:17.508Z,10.60
2022-11-26T14:15:41.040Z,11.77
2022-11-26T14:17:58.387Z,11.27
2022-11-26T14:20:12.003Z,7.13
2022-11-26T14:22:28.798Z,4.47
2022-11-26T14:24:56.920Z,4.63
2022-11-26T14:27:05.425Z,4.67
2022-11-26T14:29:19.189Z,4.50
2022-11-26T14:31:30.961Z,4.40
2022-11-26T14:33:45.028Z,4.27
2022-11-26T14:35:55.278Z,4.30
2022-11-26T14:38:04.799Z,4.33
2022-11-26T14:40:21.577Z,4.50
2022-11-26T14:42:30.506Z,4.63
2022-11-26T14:44:39.048Z,4.57
2022-11-26T14:46:48.352Z,4.83
2022-11-26T14:49:00.000Z,4.73
2022-11-26T14:51:10.031Z,4.47
2022-11-26T14:53:18.573Z,4.77
2022-11-26T14:55:29.134Z,4.67
2022-11-26T14:57:43.055Z,4.73
2022-11-26T14:59:58.672Z,4.00
2022-11-26T15:02:21.956Z,4.80
2022-11-26T15:04:34.575Z,4.87
2022-11-26T15:06:45.479Z,4.47
2022-11-26T15:09:05.812Z,4.87
2022-11-26T15:11:18.692Z,4.27
2022-11-26T15:13:31.781Z,4.43
2022-11-26T15:15:51.454Z,4.67
2022-11-26T15:18:02.537Z,5.03
2022-11-26T15:20:16.571Z,4.57
2022-11-26T15:22:26.822Z,4.93
2022-11-26T15:24:35.449Z,5.50
2022-11-26T15:26:47.023Z,5.40
2022-11-26T15:28:55.651Z,5.10
2022-11-26T15:31:05.382Z,4.90
2022-11-26T15:33:15.445Z,4.87
2022-11-26T15:35:25.246Z,4.90
2022-11-26T15:37:33.688Z,4.60
2022-11-26T15:39:42.293Z,4.73
2022-11-26T15:41:51.223Z,4.77
2022-11-26T15:44:00.199Z,5.20
2022-11-26T15:46:19.007Z,5.33
2022-11-26T15:48:50.436Z,4.97
2022-11-26T15:50:59.430Z,4.93
2022-11-26T15:53:10.204Z,5.13
2022-11-26T15:55:22.053Z,4.93
2022-11-26T15:57:32.777Z,5.10
2022-11-26T15:59:43.648Z,5.97
2022-11-26T16:01:52.218Z,10.33
2022-11-26T16:04:04.584Z,10.60
2022-11-26T16:06:29.383Z,9.90
2022-11-26T16:08:43.100Z,7.87
2022-11-26T16:10:56.969Z,5.77
2022-11-26T16:13:23.084Z,6.10
2022-11-26T16:15:31.651Z,5.93
2022-11-26T16:17:40.105Z,5.90
2022-11-26T16:19:50.045Z,4.93
2022-11-26T16:22:03.833Z,4.60
2022-11-26T16:24:24.524Z,5.60
2022-11-26T16:26:33.672Z,5.60
2022-11-26T16:28:42.082Z,6.53
2022-11-26T16:30:51.240Z,9.70
2022-11-26T16:32:59.733Z,11.17
2022-11-26T16:35:29.843Z,8.47
2022-11-26T16:37:44.648Z,9.83
2022-11-26T16:39:53.784Z,9.60
2022-11-26T16:42:02.233Z,7.83
2022-11-26T16:44:10.801Z,7.40
2022-11-26T16:46:20.428Z,7.73
2022-11-26T16:48:29.422Z,7.20
2022-11-26T16:50:37.868Z,5.97
2022-11-26T16:52:47.933Z,6.80
2022-11-26T16:54:56.713Z,8.13
2022-11-26T16:57:05.177Z,8.00
2022-11-26T16:59:18.353Z,8.97
2022-11-26T17:01:27.113Z,7.90
2022-11-26T17:03:35.670Z,8.33
2022-11-26T17:05:44.796Z,9.47
2022-11-26T17:07:56.017Z,8.53
2022-11-26T17:10:04.935Z,9.33
2022-11-26T17:12:17.183Z,7.73
2022-11-26T17:14:25.785Z,6.87
2022-11-26T17:16:34.601Z,6.80
2022-11-26T17:18:43.253Z,5.63
2022-11-26T17:20:52.399Z,7.00
2022-11-26T17:23:02.203Z,5.43
2022-11-26T17:25:11.176Z,4.50
2022-11-26T17:27:21.004Z,5.07
2022-11-26T17:29:29.674Z,4.83
2022-11-26T17:31:38.226Z,5.63
2022-11-26T17:33:46.874Z,5.43
2022-11-26T17:35:55.361Z,4.70
2022-11-26T17:38:05.896Z,4.93
2022-11-26T17:40:17.700Z,5.30
2022-11-26T17:42:26.431Z,5.33
2022-11-26T17:44:35.224Z,4.90
2022-11-26T17:47:09.226Z,5.17
2022-11-26T17:49:12.228Z,4.63
2022-11-26T17:51:20.632Z,4.97
2022-11-26T17:53:30.469Z,5.00
2022-11-26T17:55:39.075Z,5.80
2022-11-26T17:57:48.379Z,5.90
2022-11-26T17:59:56.821Z,5.30
2022-11-26T18:02:06.815Z,10.63
2022-11-26T18:04:15.464Z,5.17
2022-11-26T18:06:35.280Z,5.67
2022-11-26T18:08:45.443Z,5.90
2022-11-26T18:10:54.185Z,6.60
2022-11-26T18:13:02.966Z,6.60
2022-11-26T18:15:18.100Z,7.17
2022-11-26T18:17:26.908Z,6.80
2022-11-26T18:19:39.388Z,7.03
2022-11-26T18:21:51.587Z,6.67
2022-11-26T18:24:01.590Z,6.57
2022-11-26T18:26:15.894Z,6.77
2022-11-26T18:28:24.270Z,6.40
2022-11-26T18:30:33.050Z,6.40
2022-11-26T18:32:52.411Z,5.90
2022-11-26T18:35:01.268Z,7.80
2022-11-26T18:37:10.020Z,7.30
2022-11-26T18:39:19.829Z,7.70
2022-11-26T18:41:28.560Z,5.53
2022-11-26T18:43:38.784Z,6.27
2022-11-26T18:45:47.228Z,5.77
2022-11-26T18:47:55.714Z,6.17
2022-11-26T18:50:04.127Z,4.67
2022-11-26T18:52:12.711Z,6.07
2022-11-26T18:54:22.547Z,5.17
2022-11-26T18:56:31.376Z,6.10
2022-11-26T18:58:39.802Z,9.93
2022-11-26T19:00:48.412Z,4.40
2022-11-26T19:02:57.613Z,5.23
2022-11-26T19:05:06.483Z,5.53
2022-11-26T19:07:15.834Z,6.17
2022-11-26T19:09:25.814Z,4.60
2022-11-26T19:11:34.286Z,4.90
2022-11-26T19:13:42.820Z,4.60
2022-11-26T19:15:51.543Z,4.07
2022-11-26T19:18:00.004Z,5.00
2022-11-26T19:20:09.394Z,4.93
2022-11-26T19:22:17.999Z,4.40
2022-11-26T19:24:27.846Z,5.00
2022-11-26T19:26:37.706Z,4.13
2022-11-26T19:28:46.217Z,3.67
2022-11-26T19:31:02.076Z,4.37
2022-11-26T19:33:10.829Z,5.43
2022-11-26T19:35:19.305Z,5.63
2022-11-26T19:37:28.182Z,5.53
2022-11-26T19:39:38.252Z,4.03
2022-11-26T19:41:48.146Z,5.17
2022-11-26T19:43:56.630Z,5.73
2022-11-26T19:46:05.710Z,5.97
2022-11-26T19:48:14.467Z,7.27
2022-11-26T19:50:22.946Z,7.80
2022-11-26T19:52:31.370Z,7.50
2022-11-26T19:54:41.251Z,7.03
2022-11-26T19:56:49.701Z,9.47
2022-11-26T19:58:59.223Z,7.80
2022-11-26T20:01:08.408Z,4.53
2022-11-26T20:03:17.072Z,4.00
2022-11-26T20:05:25.534Z,4.30
2022-11-26T20:07:34.089Z,3.57
2022-11-26T20:09:44.001Z,5.90
2022-11-26T20:11:52.792Z,4.87
2022-11-26T20:14:01.372Z,4.40
2022-11-26T20:16:10.292Z,5.03
2022-11-26T20:18:18.774Z,5.03
2022-11-26T20:20:27.396Z,7.73
2022-11-26T20:22:37.566Z,5.30
2022-11-26T20:24:47.429Z,5.63
2022-11-26T20:26:56.122Z,5.57
2022-11-26T20:29:06.154Z,7.97
2022-11-26T20:31:19.275Z,6.63
2022-11-26T20:33:30.459Z,7.40
2022-11-26T20:35:41.340Z,7.57
2022-11-26T20:37:50.011Z,5.80
2022-11-26T20:39:59.900Z,9.73
2022-11-26T20:42:08.739Z,10.30
2022-11-26T20:44:17.448Z,8.83
2022-11-26T20:46:26.551Z,8.30
2022-11-26T20:48:36.245Z,9.90
2022-11-26T20:50:44.869Z,8.57
2022-11-26T20:52:53.348Z,9.67
2022-11-26T20:55:03.250Z,10.43
2022-11-26T20:57:11.739Z,8.80
2022-11-26T20:59:20.121Z,8.30
2022-11-26T21:01:29.742Z,7.47
2022-11-26T21:03:38.205Z,9.27
2022-11-26T21:05:46.756Z,8.50
2022-11-26T21:07:55.912Z,7.53
2022-11-26T21:10:06.020Z,7.47
2022-11-26T21:12:14.608Z,6.53
2022-11-26T21:14:23.055Z,6.00
2022-11-26T21:16:32.126Z,6.30
2022-11-26T21:18:40.590Z,6.77
2022-11-26T21:20:49.294Z,6.50
2022-11-26T21:22:57.723Z,9.90
2022-11-26T21:25:09.004Z,21.70
2022-11-26T21:27:17.686Z,17.23
2022-11-26T21:29:26.720Z,6.20
2022-11-26T21:31:35.160Z,7.60
2022-11-26T21:33:43.962Z,6.40
2022-11-26T21:35:52.372Z,6.87
2022-11-26T21:38:01.062Z,6.33
2022-11-26T21:40:11.941Z,7.13
2022-11-26T21:42:20.395Z,6.80
2022-11-26T21:44:29.048Z,5.40
2022-11-26T21:46:38.984Z,6.87
2022-11-26T21:48:47.982Z,6.20
2022-11-26T21:50:56.829Z,6.93
2022-11-26T21:53:05.246Z,6.00
2022-11-26T21:55:15.250Z,6.60
2022-11-26T21:57:24.609Z,5.70
2022-11-26T21:59:33.030Z,6.07
2022-11-26T22:01:41.550Z,6.20
2022-11-26T22:03:50.822Z,7.07
2022-11-26T22:06:00.371Z,5.47
2022-11-26T22:08:08.891Z,5.60
2022-11-26T22:10:19.192Z,6.27
2022-11-26T22:12:28.134Z,5.60
2022-11-26T22:14:36.757Z,6.17
2022-11-26T22:16:47.381Z,5.90
2022-11-26T22:18:56.404Z,6.10
2022-11-26T22:21:05.220Z,6.33
2022-11-26T22:23:13.737Z,6.43
2022-11-26T22:25:23.881Z,6.00
2022-11-26T22:27:32.520Z,6.50
2022-11-26T22:29:41.263Z,6.60
2022-11-26T22:31:52.688Z,5.60
2022-11-26T22:34:02.401Z,6.17
2022-11-26T22:36:11.236Z,6.13
2022-11-26T22:38:19.760Z,5.97
2022-11-26T22:40:29.798Z,5.90
2022-11-26T22:42:38.451Z,5.87
2022-11-26T22:44:47.180Z,5.97
2022-11-26T22:46:55.628Z,7.07
2022-11-26T22:49:04.506Z,7.00
2022-11-26T22:51:13.637Z,7.03
2022-11-26T22:53:22.174Z,6.90
2022-11-26T22:55:32.058Z,7.67
2022-11-26T22:57:40.598Z,7.07
2022-11-26T22:59:49.043Z,7.07
2022-11-26T23:01:57.788Z,7.23
2022-11-26T23:04:07.208Z,7.20
2022-11-26T23:06:16.317Z,7.13
2022-11-26T23:08:24.807Z,7.03
2022-11-26T23:10:34.992Z,6.90
2022-11-26T23:12:43.427Z,7.83
2022-11-26T23:14:51.910Z,7.67
2022-11-26T23:17:00.314Z,7.37
2022-11-26T23:19:09.351Z,7.80
2022-11-26T23:21:19.616Z,7.23
2022-11-26T23:23:28.097Z,7.47
2022-11-26T23:25:40.762Z,7.73
2022-11-26T23:27:49.656Z,8.00
2022-11-26T23:29:58.453Z,8.23
2022-11-26T23:32:06.968Z,7.50
2022-11-26T23:34:15.911Z,7.63
2022-11-26T23:36:24.726Z,7.37
2022-11-26T23:38:33.319Z,8.27
2022-11-26T23:40:44.521Z,7.57
2022-11-26T23:42:53.157Z,7.80
2022-11-26T23:45:02.049Z,8.03
2022-11-26T23:47:10.491Z,6.93
2022-11-26T23:49:19.124Z,7.00
2022-11-26T23:51:29.250Z,7.33
2022-11-26T23:53:38.448Z,7.70
2022-11-26T23:55:48.969Z,7.10
2022-11-26T23:57:57.509Z,8.00
